Station History


Daily Summary for March 3, 2012 Units:  English    Metric   Both
« Previous Day
Next Day »
Daily Weekly Monthly Yearly Custom
  High: Low: Average:
Temperature: 72.5 °F 36.2 °F 51.7 °F
Dew Point: 46.8 °F 34.6 °F 41.7 °F
Humidity: 97% 36% 73%
Wind Speed: 4.6mph 0.0mph 2mph
Wind Gust: 4.6mph - -
Wind- - SW
Pressure: 30.36 in 30.22 in -
Precipitation: 0.00 in    
Historical Graphs
 
 
Tabular Data for March 3, 2012
Time Temperature Dew Point Pressure Wind Wind Speed Wind Gust Humidity Rainfall Rate (Hourly)
00:01 41.3 °F 39.2 °F 30.32 in Calm     92% 0.00 in
00:06 41.0 °F 38.6 °F 30.32 in Calm     91% 0.00 in
00:11 40.8 °F 38.4 °F 30.32 in Calm     91% 0.00 in
00:16 40.6 °F 38.5 °F 30.32 in Calm     92% 0.00 in
00:21 40.3 °F 38.2 °F 30.32 in Calm     92% 0.00 in
00:26 40.2 °F 38.1 °F 30.32 in Calm     92% 0.00 in
00:31 40.1 °F 38.0 °F 30.32 in Calm     92% 0.00 in
00:36 40.0 °F 37.9 °F 30.32 in Calm     92% 0.00 in
00:41 39.8 °F 37.7 °F 30.32 in Calm     92% 0.00 in
00:46 39.7 °F 37.6 °F 30.32 in Calm     92% 0.00 in
00:51 39.7 °F 37.6 °F 30.32 in Calm     92% 0.00 in
00:56 39.5 °F 37.4 °F 30.32 in Calm     92% 0.00 in
01:01 39.6 °F 37.7 °F 30.32 in Calm     93% 0.00 in
01:07 39.6 °F 37.7 °F 30.32 in Calm     93% 0.00 in
01:12 39.4 °F 37.3 °F 30.32 in Calm     92% 0.00 in
01:17 39.5 °F 37.6 °F 30.32 in Calm     93% 0.00 in
01:22 39.7 °F 38.1 °F 30.32 in Calm     94% 0.00 in
01:27 39.8 °F 37.9 °F 30.32 in Calm     93% 0.00 in
01:32 39.8 °F 37.9 °F 30.32 in Calm     93% 0.00 in
01:37 39.6 °F 37.7 °F 30.32 in Calm     93% 0.00 in
01:42 39.7 °F 38.1 °F 30.32 in Calm     94% 0.00 in
01:47 39.8 °F 38.2 °F 30.32 in Calm     94% 0.00 in
01:52 39.8 °F 38.2 °F 30.32 in Calm     94% 0.00 in
01:57 39.7 °F 37.8 °F 30.32 in Calm     93% 0.00 in
02:02 39.5 °F 37.6 °F 30.32 in Calm     93% 0.00 in
02:07 39.2 °F 37.1 °F 30.32 in Calm     92% 0.00 in
02:12 39.0 °F 37.1 °F 30.32 in Calm     93% 0.00 in
02:17 38.8 °F 36.9 °F 30.32 in Calm     93% 0.00 in
02:22 38.8 °F 36.9 °F 30.32 in Calm     93% 0.00 in
02:27 38.7 °F 36.9 °F 30.32 in Calm     93% 0.00 in
02:32 38.5 °F 36.7 °F 30.32 in Calm     93% 0.00 in
02:38 38.4 °F 36.6 °F 30.32 in Calm     93% 0.00 in
02:43 38.4 °F 36.8 °F 30.32 in Calm     94% 0.00 in
02:48 38.3 °F 36.7 °F 30.32 in Calm     94% 0.00 in
02:53 38.5 °F 37.2 °F 30.32 in Calm     95% 0.00 in
02:58 38.5 °F 36.9 °F 30.32 in Calm     94% 0.00 in
03:03 38.8 °F 37.5 °F 30.32 in Calm     95% 0.00 in
03:08 39.0 °F 37.7 °F 30.33 in Calm     95% 0.00 in
03:13 39.1 °F 37.8 °F 30.32 in Calm     95% 0.00 in
03:18 39.0 °F 37.4 °F 30.33 in Calm     94% 0.00 in
03:23 38.9 °F 37.3 °F 30.32 in Calm     94% 0.00 in
03:28 38.8 °F 37.2 °F 30.33 in Calm     94% 0.00 in
03:33 38.7 °F 37.1 °F 30.33 in Calm     94% 0.00 in
03:38 38.5 °F 36.9 °F 30.33 in Calm     94% 0.00 in
03:43 38.3 °F 36.7 °F 30.33 in Calm     94% 0.00 in
03:48 38.0 °F 36.4 °F 30.33 in Calm     94% 0.00 in
03:53 37.9 °F 36.3 °F 30.33 in Calm     94% 0.00 in
03:58 37.9 °F 36.3 °F 30.33 in Calm     94% 0.00 in
04:03 37.8 °F 36.2 °F 30.34 in Calm     94% 0.00 in
04:08 37.8 °F 36.2 °F 30.34 in Calm     94% 0.00 in
04:13 37.9 °F 36.6 °F 30.34 in Calm     95% 0.00 in
04:18 38.1 °F 36.8 °F 30.34 in Calm     95% 0.00 in
04:23 38.3 °F 37.0 °F 30.34 in Calm     95% 0.00 in
04:28 38.4 °F 37.1 °F 30.34 in Calm     95% 0.00 in
04:34 38.4 °F 37.1 °F 30.34 in Calm     95% 0.00 in
04:38 38.4 °F 36.8 °F 30.34 in Calm     94% 0.00 in
04:44 38.5 °F 36.9 °F 30.34 in Calm     94% 0.00 in
04:49 38.6 °F 37.0 °F 30.34 in Calm     94% 0.00 in
04:54 38.6 °F 37.0 °F 30.34 in Calm     94% 0.00 in
04:59 38.5 °F 36.9 °F 30.35 in Calm     94% 0.00 in
05:04 38.3 °F 36.7 °F 30.34 in Calm     94% 0.00 in
05:09 38.2 °F 36.6 °F 30.34 in Calm     94% 0.00 in
05:14 38.2 °F 36.6 °F 30.35 in Calm     94% 0.00 in
05:19 38.2 °F 36.6 °F 30.34 in Calm     94% 0.00 in
05:24 38.0 °F 36.4 °F 30.34 in Calm     94% 0.00 in
05:29 37.9 °F 36.3 °F 30.34 in Calm     94% 0.00 in
05:34 37.7 °F 36.1 °F 30.34 in Calm     94% 0.00 in
05:39 37.5 °F 35.9 °F 30.34 in Calm     94% 0.00 in
05:44 37.7 °F 36.4 °F 30.34 in Calm     95% 0.00 in
05:49 37.6 °F 36.0 °F 30.34 in Calm     94% 0.00 in
05:54 37.4 °F 35.8 °F 30.34 in Calm     94% 0.00 in
05:59 37.2 °F 35.6 °F 30.34 in Calm     94% 0.00 in
06:04 37.2 °F 35.6 °F 30.34 in Calm     94% 0.00 in
06:09 37.3 °F 35.7 °F 30.34 in Calm     94% 0.00 in
06:14 37.1 °F 35.5 °F 30.34 in Calm     94% 0.00 in
06:19 36.8 °F 35.2 °F 30.34 in Calm     94% 0.00 in
06:24 36.5 °F 34.9 °F 30.34 in Calm     94% 0.00 in
06:29 36.5 °F 34.9 °F 30.34 in Calm     94% 0.00 in
06:34 36.4 °F 34.8 °F 30.34 in Calm     94% 0.00 in
06:39 36.2 °F 34.6 °F 30.34 in Calm     94% 0.00 in
06:44 36.2 °F 34.9 °F 30.34 in Calm     95% 0.00 in
06:49 36.4 °F 35.1 °F 30.34 in Calm     95% 0.00 in
06:54 36.6 °F 35.3 °F 30.34 in Calm     95% 0.00 in
06:59 36.9 °F 35.9 °F 30.35 in Calm     96% 0.00 in
07:04 37.4 °F 36.4 °F 30.35 in Calm     96% 0.00 in
07:09 37.9 °F 36.9 °F 30.35 in Calm     96% 0.00 in
07:14 38.5 °F 37.5 °F 30.35 in Calm     96% 0.00 in
07:19 39.1 °F 38.3 °F 30.35 in Calm     97% 0.00 in
07:24 39.4 °F 38.6 °F 30.35 in Calm     97% 0.00 in
07:29 40.2 °F 39.4 °F 30.35 in Calm     97% 0.00 in
07:34 40.6 °F 39.8 °F 30.35 in Calm     97% 0.00 in
07:39 41.0 °F 40.2 °F 30.36 in Calm     97% 0.00 in
07:44 41.5 °F 40.7 °F 30.36 in Calm     97% 0.00 in
07:49 42.1 °F 41.3 °F 30.36 in Calm     97% 0.00 in
07:54 42.6 °F 41.5 °F 30.36 in Calm     96% 0.00 in
07:59 43.1 °F 42.0 °F 30.36 in Calm     96% 0.00 in
08:04 44.1 °F 42.5 °F 30.36 in Calm     94% 0.00 in
08:09 45.2 °F 42.7 °F 30.36 in Calm   0.1 mph 91% 0.00 in
08:14 46.1 °F 42.4 °F 30.36 in SW 2.3 mph 2.3 mph 87% 0.00 in
08:19 46.7 °F 42.7 °F 30.36 in SW 3.0 mph 3.0 mph 86% 0.00 in
08:24 47.1 °F 42.8 °F 30.36 in SW 1.0 mph 1.0 mph 85% 0.00 in
08:29 47.6 °F 43.0 °F 30.36 in SW 1.1 mph 1.1 mph 84% 0.00 in
08:34 48.0 °F 43.1 °F 30.36 in SW 1.1 mph 1.1 mph 83% 0.00 in
08:39 48.3 °F 43.1 °F 30.36 in SSW 1.1 mph   82% 0.00 in
08:44 48.5 °F 43.3 °F 30.36 in SSW 1.1 mph 1.1 mph 82% 0.00 in
08:49 48.9 °F 43.3 °F 30.36 in South 2.3 mph 2.3 mph 81% 0.00 in
08:54 49.0 °F 43.4 °F 30.36 in SSW 2.3 mph 2.3 mph 81% 0.00 in
08:59 49.1 °F 43.5 °F 30.36 in SW 1.1 mph 1.1 mph 81% 0.00 in
09:04 49.3 °F 43.7 °F 30.36 in SSW 1.0 mph 1.0 mph 81% 0.00 in
09:09 49.5 °F 43.9 °F 30.36 in Calm     81% 0.00 in
09:14 49.7 °F 43.8 °F 30.36 in SSW 1.1 mph 1.1 mph 80% 0.00 in
09:19 50.1 °F 43.8 °F 30.36 in SSW 1.0 mph 1.0 mph 79% 0.00 in
09:24 50.4 °F 44.1 °F 30.36 in SW 1.1 mph 1.1 mph 79% 0.00 in
09:29 50.8 °F 43.8 °F 30.36 in Calm     77% 0.00 in
09:35 51.3 °F 44.0 °F 30.36 in WSW 1.1 mph 1.1 mph 76% 0.00 in
09:40 51.5 °F 43.8 °F 30.36 in SW 1.1 mph   75% 0.00 in
09:45 51.8 °F 43.8 °F 30.36 in SSW 1.1 mph 1.1 mph 74% 0.00 in
09:50 52.3 °F 44.6 °F 30.36 in Calm     75% 0.00 in
09:55 52.6 °F 44.2 °F 30.36 in SW 1.1 mph 1.1 mph 73% 0.00 in
10:00 52.9 °F 44.5 °F 30.35 in West 1.1 mph   73% 0.00 in
10:05 53.3 °F 44.9 °F 30.35 in North 1.1 mph 1.1 mph 73% 0.00 in
10:10 53.7 °F 44.9 °F 30.35 in North 1.1 mph   72% 0.00 in
10:15 54.4 °F 44.8 °F 30.35 in West 1.1 mph 1.1 mph 70% 0.00 in
10:20 55.1 °F 45.1 °F 30.35 in NNW 1.1 mph 1.1 mph 69% 0.00 in
10:25 55.5 °F 44.7 °F 30.35 in SSW 2.3 mph 2.3 mph 67% 0.00 in
10:30 56.0 °F 44.8 °F 30.34 in Calm     66% 0.00 in
10:35 56.7 °F 44.7 °F 30.34 in Calm     64% 0.00 in
10:36 56.8 °F 44.3 °F 30.34 in West 1.1 mph 1.1 mph 63% 0.00 in
11:00 59.0 °F 45.1 °F 30.34 in WNW 1.1 mph   60% 0.00 in
11:05 59.4 °F 45.5 °F 30.34 in NNW 3.5 mph 3.5 mph 60% 0.00 in
11:10 60.1 °F 46.2 °F 30.33 in SSW 2.3 mph 2.3 mph 60% 0.00 in
11:15 60.7 °F 45.8 °F 30.33 in NW 1.1 mph 1.1 mph 58% 0.00 in
11:20 60.6 °F 44.8 °F 30.33 in NNW 3.5 mph 3.5 mph 56% 0.00 in
11:26 60.7 °F 45.4 °F 30.33 in SSW 2.0 mph 2.0 mph 57% 0.00 in
11:31 61.1 °F 45.7 °F 30.33 in SW 1.1 mph   57% 0.00 in
11:36 61.6 °F 45.3 °F 30.33 in NW 2.3 mph 2.3 mph 55% 0.00 in
11:41 62.1 °F 45.7 °F 30.33 in SW 1.1 mph 1.1 mph 55% 0.00 in
11:46 62.7 °F 46.8 °F 30.32 in NW 1.1 mph 1.1 mph 56% 0.00 in
11:51 63.0 °F 46.1 °F 30.32 in NW 2.3 mph 2.3 mph 54% 0.00 in
11:56 62.9 °F 45.5 °F 30.32 in SSE 1.1 mph 1.1 mph 53% 0.00 in
12:01 63.6 °F 46.6 °F 30.32 in NNE 1.1 mph 1.1 mph 54% 0.00 in
12:06 64.1 °F 45.6 °F 30.32 in WSW 1.1 mph 1.1 mph 51% 0.00 in
12:11 64.7 °F 46.1 °F 30.32 in SW 2.3 mph 2.3 mph 51% 0.00 in
12:16 65.1 °F 46.0 °F 30.31 in West 3.5 mph 3.5 mph 50% 0.00 in
12:21 65.2 °F 45.5 °F 30.31 in West 2.3 mph 2.3 mph 49% 0.00 in
12:26 65.4 °F 45.7 °F 30.31 in NNE 3.0 mph 3.0 mph 49% 0.00 in
12:31 65.6 °F 45.9 °F 30.30 in West 2.3 mph 2.3 mph 49% 0.00 in
12:36 66.1 °F 46.4 °F 30.30 in WNW 2.3 mph 2.3 mph 49% 0.00 in
12:41 66.6 °F 45.7 °F 30.30 in South 1.1 mph 1.1 mph 47% 0.00 in
12:46 66.9 °F 46.6 °F 30.30 in Calm     48% 0.00 in
12:51 67.2 °F 45.7 °F 30.30 in NW 3.5 mph 3.5 mph 46% 0.00 in
12:56 67.1 °F 45.6 °F 30.29 in North 2.3 mph 2.3 mph 46% 0.00 in
13:01 66.8 °F 45.3 °F 30.29 in NNE 4.0 mph 4.0 mph 46% 0.00 in
13:06 66.7 °F 45.8 °F 30.29 in NW 2.3 mph 2.3 mph 47% 0.00 in
13:11 67.3 °F 45.8 °F 30.29 in NW 3.5 mph 3.5 mph 46% 0.00 in
13:16 67.3 °F 45.2 °F 30.29 in SSW 1.1 mph 1.1 mph 45% 0.00 in
13:21 67.8 °F 45.7 °F 30.28 in SW 2.3 mph 2.3 mph 45% 0.00 in
13:26 68.3 °F 45.5 °F 30.28 in South 3.5 mph 3.5 mph 44% 0.00 in
13:31 68.8 °F 46.6 °F 30.28 in WNW 1.1 mph 1.1 mph 45% 0.00 in
13:36 69.0 °F 45.6 °F 30.27 in SW 3.5 mph 3.5 mph 43% 0.00 in
13:41 69.0 °F 46.8 °F 30.27 in WSW 1.1 mph 1.1 mph 45% 0.00 in
13:46 69.3 °F 46.4 °F 30.27 in South 1.1 mph 1.1 mph 44% 0.00 in
13:51 69.3 °F 45.8 °F 30.27 in NNE 3.5 mph 3.5 mph 43% 0.00 in
13:56 69.4 °F 45.9 °F 30.27 in West 2.3 mph 2.3 mph 43% 0.00 in
14:01 69.4 °F 45.3 °F 30.27 in West 1.1 mph 1.1 mph 42% 0.00 in
14:06 69.8 °F 46.3 °F 30.27 in WNW 1.1 mph 1.1 mph 43% 0.00 in
14:11 70.0 °F 45.8 °F 30.26 in SSE 2.3 mph 2.3 mph 42% 0.00 in
14:16 70.4 °F 45.6 °F 30.26 in SSW 1.1 mph 1.1 mph 41% 0.00 in
14:21 70.8 °F 45.3 °F 30.26 in NNW 2.3 mph 2.3 mph 40% 0.00 in
14:26 70.5 °F 45.7 °F 30.26 in West 1.1 mph 1.1 mph 41% 0.00 in
14:31 70.9 °F 46.0 °F 30.26 in West 2.3 mph 2.3 mph 41% 0.00 in
14:36 71.0 °F 46.1 °F 30.26 in NNE 4.6 mph 4.6 mph 41% 0.00 in
14:41 71.1 °F 45.5 °F 30.25 in WNW 3.5 mph 3.5 mph 40% 0.00 in
14:46 71.0 °F 46.1 °F 30.25 in NW 3.5 mph 3.5 mph 41% 0.00 in
14:51 70.8 °F 45.9 °F 30.25 in West 1.1 mph 1.1 mph 41% 0.00 in
14:56 71.8 °F 46.2 °F 30.25 in NNE 2.3 mph 2.3 mph 40% 0.00 in
15:01 72.0 °F 46.3 °F 30.25 in NNE 1.1 mph 1.1 mph 40% 0.00 in
15:06 71.9 °F 45.6 °F 30.24 in WSW 1.1 mph 1.1 mph 39% 0.00 in
15:11 72.3 °F 45.3 °F 30.24 in WSW 2.3 mph 2.3 mph 38% 0.00 in
15:16 72.1 °F 45.1 °F 30.24 in NNE 3.5 mph 3.5 mph 38% 0.00 in
15:21 71.9 °F 45.6 °F 30.24 in NNW 2.3 mph 2.3 mph 39% 0.00 in
15:26 72.1 °F 45.8 °F 30.24 in West 3.5 mph 3.5 mph 39% 0.00 in
15:31 72.5 °F 45.4 °F 30.24 in SE 2.3 mph 2.3 mph 38% 0.00 in
15:36 72.4 °F 44.6 °F 30.24 in NNE 2.3 mph 2.3 mph 37% 0.00 in
15:41 72.2 °F 44.5 °F 30.24 in WSW 3.5 mph 3.5 mph 37% 0.00 in
15:46 72.3 °F 44.6 °F 30.24 in NNW 2.3 mph 2.3 mph 37% 0.00 in
15:51 72.3 °F 43.8 °F 30.24 in North 2.3 mph 2.3 mph 36% 0.00 in
15:56 72.3 °F 44.6 °F 30.23 in ENE 2.3 mph 2.3 mph 37% 0.00 in
16:01 72.0 °F 43.6 °F 30.23 in North 1.1 mph 1.1 mph 36% 0.00 in
16:06 71.9 °F 44.2 °F 30.23 in NNW 1.1 mph 1.1 mph 37% 0.00 in
16:11 72.2 °F 44.5 °F 30.23 in WNW 1.1 mph 1.1 mph 37% 0.00 in
16:16 72.4 °F 43.9 °F 30.23 in North 2.3 mph 2.3 mph 36% 0.00 in
16:21 71.7 °F 44.0 °F 30.23 in West 3.5 mph 3.5 mph 37% 0.00 in
16:26 71.4 °F 43.8 °F 30.23 in SSE 2.3 mph 2.3 mph 37% 0.00 in
16:31 70.7 °F 43.8 °F 30.23 in ENE 2.0 mph 2.0 mph 38% 0.00 in
16:36 70.4 °F 44.3 °F 30.23 in ENE 2.3 mph 2.3 mph 39% 0.00 in
16:41 70.3 °F 44.2 °F 30.23 in South 3.5 mph 3.5 mph 39% 0.00 in
16:46 70.1 °F 44.0 °F 30.23 in West 1.1 mph 1.1 mph 39% 0.00 in
16:51 70.0 °F 43.9 °F 30.23 in NE 1.1 mph 1.1 mph 39% 0.00 in
16:56 69.0 °F 43.0 °F 30.23 in WSW 2.3 mph 2.3 mph 39% 0.00 in
17:01 68.4 °F 43.1 °F 30.23 in North 2.3 mph 2.3 mph 40% 0.00 in
17:06 67.9 °F 43.3 °F 30.23 in North 2.3 mph 2.3 mph 41% 0.00 in
17:11 67.4 °F 42.9 °F 30.23 in Calm     41% 0.00 in
17:16 67.0 °F 43.1 °F 30.23 in West 2.3 mph 2.3 mph 42% 0.00 in
17:21 66.6 °F 43.4 °F 30.22 in NNE 1.1 mph   43% 0.00 in
17:27 66.3 °F 42.5 °F 30.22 in NW 2.3 mph 2.3 mph 42% 0.00 in
17:32 66.0 °F 42.2 °F 30.22 in NW 1.1 mph 1.1 mph 42% 0.00 in
17:37 65.8 °F 42.7 °F 30.22 in Calm     43% 0.00 in
17:42 65.5 °F 42.4 °F 30.22 in Calm   0.1 mph 43% 0.00 in
17:47 65.1 °F 42.0 °F 30.22 in Calm     43% 0.00 in
17:52 64.6 °F 42.2 °F 30.22 in Calm     44% 0.00 in
17:57 64.1 °F 42.3 °F 30.22 in Calm     45% 0.00 in
18:02 63.6 °F 42.4 °F 30.23 in Calm     46% 0.00 in
18:07 63.0 °F 42.4 °F 30.23 in Calm     47% 0.00 in
18:12 62.5 °F 42.5 °F 30.23 in Calm     48% 0.00 in
18:17 61.7 °F 42.9 °F 30.23 in Calm     50% 0.00 in
18:22 60.8 °F 42.5 °F 30.23 in Calm     51% 0.00 in
18:27 59.9 °F 43.2 °F 30.23 in Calm     54% 0.00 in
18:32 59.2 °F 43.5 °F 30.23 in Calm     56% 0.00 in
18:37 58.4 °F 43.2 °F 30.23 in Calm     57% 0.00 in
18:42 57.8 °F 43.1 °F 30.23 in Calm     58% 0.00 in
18:47 57.1 °F 42.5 °F 30.24 in Calm     58% 0.00 in
18:52 56.5 °F 43.2 °F 30.24 in Calm     61% 0.00 in
18:57 56.0 °F 43.2 °F 30.24 in Calm     62% 0.00 in
19:02 55.5 °F 43.1 °F 30.24 in Calm     63% 0.00 in
19:07 55.0 °F 43.4 °F 30.24 in Calm     65% 0.00 in
19:12 54.6 °F 43.5 °F 30.24 in Calm     66% 0.00 in
19:17 54.3 °F 43.2 °F 30.24 in Calm     66% 0.00 in
19:22 53.9 °F 42.8 °F 30.24 in Calm     66% 0.00 in
19:27 53.6 °F 43.3 °F 30.24 in Calm     68% 0.00 in
19:32 53.3 °F 43.4 °F 30.24 in Calm     69% 0.00 in
19:37 53.0 °F 43.5 °F 30.24 in Calm     70% 0.00 in
19:42 52.8 °F 43.7 °F 30.24 in Calm     71% 0.00 in
19:47 52.6 °F 43.5 °F 30.24 in Calm     71% 0.00 in
19:52 52.4 °F 43.6 °F 30.24 in Calm     72% 0.00 in
19:57 52.1 °F 43.3 °F 30.24 in Calm     72% 0.00 in
20:02 51.7 °F 43.3 °F 30.24 in Calm     73% 0.00 in
20:07 51.4 °F 43.4 °F 30.24 in Calm     74% 0.00 in
20:12 51.2 °F 43.2 °F 30.24 in Calm     74% 0.00 in
20:17 50.9 °F 43.3 °F 30.24 in Calm     75% 0.00 in
20:22 50.7 °F 43.1 °F 30.24 in Calm     75% 0.00 in
20:27 50.4 °F 43.1 °F 30.24 in Calm     76% 0.00 in
20:32 50.2 °F 42.9 °F 30.24 in Calm     76% 0.00 in
20:37 50.1 °F 43.2 °F 30.24 in Calm     77% 0.00 in
20:42 49.9 °F 43.3 °F 30.24 in Calm     78% 0.00 in
20:47 49.7 °F 43.1 °F 30.24 in Calm     78% 0.00 in
20:52 49.4 °F 42.8 °F 30.24 in Calm     78% 0.00 in
20:57 49.1 °F 42.5 °F 30.25 in Calm     78% 0.00 in
21:00 48.9 °F 42.7 °F 30.25 in Calm     79% 0.00 in
21:01 48.8 °F 42.6 °F 30.25 in Calm     79% 0.00 in
21:06 48.5 °F 42.3 °F 30.25 in Calm     79% 0.00 in
21:11 48.2 °F 42.0 °F 30.25 in Calm     79% 0.00 in
21:16 48.0 °F 42.1 °F 30.25 in Calm     80% 0.00 in
21:21 47.7 °F 42.2 °F 30.25 in Calm     81% 0.00 in
21:26 47.6 °F 42.4 °F 30.25 in Calm     82% 0.00 in
21:31 47.5 °F 42.3 °F 30.25 in Calm     82% 0.00 in
21:36 47.4 °F 42.2 °F 30.25 in Calm     82% 0.00 in
21:41 47.3 °F 42.4 °F 30.25 in Calm     83% 0.00 in
21:46 47.1 °F 42.2 °F 30.25 in Calm     83% 0.00 in
21:51 47.0 °F 42.1 °F 30.25 in Calm     83% 0.00 in
21:56 46.9 °F 42.3 °F 30.25 in Calm     84% 0.00 in
22:01 46.7 °F 42.1 °F 30.25 in Calm     84% 0.00 in
22:06 46.6 °F 42.3 °F 30.25 in Calm     85% 0.00 in
22:11 46.5 °F 42.2 °F 30.25 in Calm     85% 0.00 in
22:16 46.3 °F 42.0 °F 30.25 in Calm     85% 0.00 in
22:21 46.2 °F 42.2 °F 30.25 in Calm     86% 0.00 in
22:26 46.1 °F 42.4 °F 30.25 in Calm     87% 0.00 in
22:31 46.1 °F 42.7 °F 30.25 in Calm     88% 0.00 in
22:36 46.2 °F 42.5 °F 30.25 in Calm     87% 0.00 in
22:41 46.1 °F 42.7 °F 30.25 in Calm     88% 0.00 in
22:47 46.2 °F 42.8 °F 30.26 in Calm     88% 0.00 in
22:52 46.4 °F 43.0 °F 30.25 in Calm     88% 0.00 in
22:57 46.7 °F 43.0 °F 30.25 in Calm     87% 0.00 in
23:02 47.0 °F 43.3 °F 30.25 in Calm     87% 0.00 in
23:07 47.1 °F 42.8 °F 30.25 in Calm     85% 0.00 in
23:12 47.0 °F 43.0 °F 30.25 in Calm     86% 0.00 in
23:17 46.8 °F 42.5 °F 30.25 in Calm     85% 0.00 in
23:22 46.8 °F 42.8 °F 30.25 in Calm     86% 0.00 in
23:27 46.6 °F 42.3 °F 30.25 in Calm     85% 0.00 in
23:32 46.2 °F 41.9 °F 30.25 in Calm     85% 0.00 in
23:37 45.9 °F 42.2 °F 30.25 in Calm     87% 0.00 in
23:42 45.9 °F 42.5 °F 30.24 in Calm     88% 0.00 in
23:47 45.9 °F 42.5 °F 30.25 in Calm     88% 0.00 in
23:52 45.7 °F 42.3 °F 30.24 in Calm     88% 0.00 in
23:57 45.6 °F 42.5 °F 30.24 in Calm     89% 0.00 in
Compliments of Weather Underground